Latest Weather Observations for Arlington Reef

IDQ60801

Issued at 1:32 pm EST Friday 27 March 2015 (issued every 30 minutes, with the page automatically refreshed every 10 minutes)

About weather observations | Map of weather stations | Latest weather observations for QLD | Other Formats
Station Details ID: 200879 Name: ARLINGTON REEF Lat: -16.72 Lon: 146.11 Height: 0.0 m
Data from the previous 72 hours. | See also: Recent months at Arlington Reef
Date/Time
EST
Temp
°C
App
Temp
°C
Dew
Point
Rel
Hum
%
Delta-T
°C
Wind Press
QNH
hPa
Press
MSL
hPa
Rain
since 9 am
mm
Dir
 
Spd
km/h
Gust
km/h
Spd
kts
Gust
kts
27/01:30pm - - - - - ESE 13 17 7 9 1014.0 1014.0 -
27/01:00pm - - - - - SE 17 22 9 12 1014.5 1014.5 -
27/12:30pm - - - - - SE 17 20 9 11 1014.8 1014.8 -
27/12:00pm - - - - - SE 19 22 10 12 1015.4 1015.4 -
27/11:30am - - - - - ESE 22 24 12 13 1015.9 1015.9 -
27/11:00am - - - - - SE 20 26 11 14 1016.3 1016.3 -
27/10:30am - - - - - SE 22 26 12 14 1016.2 1016.2 -
27/10:00am - - - - - SE 24 28 13 15 1016.4 1016.4 -
27/09:30am - - - - - SSE 26 30 14 16 1016.2 1016.2 -
27/09:00am - - - - - SSE 20 24 11 13 1016.0 1016.0 -
27/08:30am - - - - - SE 20 24 11 13 1015.8 1015.8 -
27/08:00am - - - - - SE 20 26 11 14 1015.7 1015.7 -
27/07:30am - - - - - SSE 19 24 10 13 1015.5 1015.5 -
27/07:00am - - - - - SSE 19 22 10 12 1015.2 1015.2 -
27/06:30am - - - - - SSE 19 24 10 13 1015.1 1015.1 -
27/06:00am - - - - - SE 22 28 12 15 1015.0 1015.0 -
27/05:30am - - - - - SE 22 28 12 15 1014.7 1014.7 -
27/05:00am - - - - - SE 22 26 12 14 1014.4 1014.4 -
27/04:30am - - - - - SE 22 26 12 14 1014.2 1014.2 -
27/04:00am - - - - - SE 22 24 12 13 1014.1 1014.1 -
27/03:30am - - - - - SE 22 28 12 15 1014.0 1014.0 -
27/03:00am - - - - - SE 20 24 11 13 1014.1 1014.1 -
27/02:30am - - - - - SE 19 22 10 12 1014.4 1014.4 -
27/02:00am - - - - - ESE 20 24 11 13 1014.7 1014.7 -
27/01:30am - - - - - SE 17 20 9 11 1015.0 1015.0 -
27/01:00am - - - - - SE 19 22 10 12 1015.4 1015.4 -
27/12:30am - - - - - ESE 19 22 10 12 1015.7 1015.7 -
27/12:00am - - - - - ESE 19 24 10 13 1016.0 1016.0 -
 
Date/Time
EST
Temp
°C
App
Temp
°C
Dew
Point
Rel
Hum
%
Delta-T
°C
Wind Press
QNH
hPa
Press
MSL
hPa
Rain
since 9 am
mm
Dir
 
Spd
km/h
Gust
km/h
Spd
kts
Gust
kts
26/11:30pm - - - - - ESE 20 24 11 13 1016.1 1016.1 -
26/11:00pm - - - - - SE 26 32 14 17 1016.1 1016.1 -
26/10:30pm - - - - - ESE 26 32 14 17 1016.1 1016.1 -
26/10:00pm - - - - - SE 30 33 16 18 1015.9 1015.9 -
26/09:30pm - - - - - SE 28 33 15 18 1015.7 1015.7 -
26/09:00pm - - - - - SE 30 33 16 18 1015.5 1015.5 -
26/08:30pm - - - - - SE 26 30 14 16 1015.2 1015.2 -
26/08:00pm - - - - - SE 30 35 16 19 1014.9 1014.9 -
26/07:30pm - - - - - SE 28 33 15 18 1014.5 1014.5 -
26/07:00pm - - - - - SE 28 32 15 17 1014.4 1014.4 -
26/06:30pm - - - - - SE 26 30 14 16 1014.1 1014.1 -
26/06:00pm - - - - - SSE 26 32 14 17 1014.0 1014.0 -
26/05:30pm - - - - - SSE 22 24 12 13 1013.8 1013.8 -
26/05:00pm - - - - - SSE 22 26 12 14 1013.5 1013.5 -
26/04:30pm - - - - - SSE 20 28 11 15 1013.3 1013.3 -
26/04:00pm - - - - - SSE 20 24 11 13 1013.1 1013.1 -
26/03:30pm - - - - - SSE 20 26 11 14 1013.1 1013.1 -
26/03:00pm - - - - - SSE 20 24 11 13 1013.1 1013.1 -
26/02:30pm - - - - - SSE 19 24 10 13 1013.5 1013.5 -
26/02:00pm - - - - - SSE 20 24 11 13 1013.7 1013.7 -
26/01:30pm - - - - - SSE 17 20 9 11 1014.0 1014.0 -
26/01:00pm - - - - - SSE 17 20 9 11 1014.5 1014.5 -
26/12:30pm - - - - - SSE 19 22 10 12 1014.8 1014.8 -
26/12:00pm - - - - - SSE 22 24 12 13 1015.2 1015.2 -
26/11:30am - - - - - SSE 20 26 11 14 1015.6 1015.6 -
26/11:00am - - - - - SSE 19 22 10 12 1015.9 1015.9 -
26/10:30am - - - - - SSE 19 22 10 12 1016.0 1016.0 -
26/10:00am - - - - - SSE 17 20 9 11 1016.0 1016.0 -
26/09:30am - - - - - SSE 17 20 9 11 1016.0 1016.0 -
26/09:00am - - - - - SE 17 20 9 11 1015.8 1015.8 -
26/08:30am - - - - - SE 17 20 9 11 1015.6 1015.6 -
26/08:00am - - - - - SE 15 19 8 10 1015.5 1015.5 -
26/07:30am - - - - - SE 17 20 9 11 1015.2 1015.2 -
26/07:00am - - - - - SE 17 20 9 11 1015.1 1015.1 -
26/06:30am - - - - - ESE 19 22 10 12 1014.8 1014.8 -
26/06:00am - - - - - ESE 15 17 8 9 1014.5 1014.5 -
26/05:30am - - - - - SE 15 19 8 10 1014.6 1014.6 -
26/05:00am - - - - - SE 19 20 10 11 1014.3 1014.3 -
26/04:30am - - - - - SE 17 19 9 10 1014.1 1014.1 -
26/04:00am - - - - - SE 15 19 8 10 1014.0 1014.0 -
26/03:30am - - - - - SE 15 19 8 10 1014.1 1014.1 -
26/03:00am - - - - - SE 17 19 9 10 1014.1 1014.1 -
26/02:30am - - - - - ESE 15 19 8 10 1014.3 1014.3 -
26/02:00am - - - - - SE 13 15 7 8 1014.4 1014.4 -
26/01:30am - - - - - SE 13 17 7 9 1014.6 1014.6 -
26/01:00am - - - - - SE 13 17 7 9 1014.8 1014.8 -
26/12:30am - - - - - SE 13 17 7 9 1015.0 1015.0 -
26/12:00am - - - - - SE 11 15 6 8 1015.4 1015.4 -
 
Date/Time
EST
Temp
°C
App
Temp
°C
Dew
Point
Rel
Hum
%
Delta-T
°C
Wind Press
QNH
hPa
Press
MSL
hPa
Rain
since 9 am
mm
Dir
 
Spd
km/h
Gust
km/h
Spd
kts
Gust
kts
25/11:30pm - - - - - SE 11 15 6 8 1015.5 1015.5 -
25/11:00pm - - - - - ESE 13 17 7 9 1015.6 1015.6 -
25/10:30pm - - - - - ESE 13 20 7 11 1015.4 1015.4 -
25/10:00pm - - - - - ESE 15 15 8 8 1015.3 1015.3 -
25/09:30pm - - - - - ESE 15 19 8 10 1015.4 1015.4 -
25/09:00pm - - - - - SE 15 17 8 9 1015.3 1015.3 -
25/08:30pm - - - - - ESE 15 17 8 9 1014.8 1014.8 -
25/08:00pm - - - - - ESE 17 19 9 10 1014.6 1014.6 -
25/07:30pm - - - - - ESE 17 20 9 11 1014.3 1014.3 -
25/07:00pm - - - - - ESE 17 20 9 11 1014.1 1014.1 -
25/06:30pm - - - - - ESE 20 24 11 13 1013.6 1013.6 -
25/06:00pm - - - - - ESE 20 24 11 13 1013.3 1013.3 -
25/05:30pm - - - - - ESE 20 24 11 13 1012.9 1012.9 -
25/05:00pm - - - - - ESE 17 22 9 12 1012.6 1012.6 -
25/04:30pm - - - - - ESE 15 17 8 9 1012.6 1012.6 -
25/04:00pm - - - - - ESE 11 13 6 7 1012.6 1012.6 -
25/03:30pm - - - - - ESE 9 13 5 7 1012.6 1012.6 -
25/03:00pm - - - - - SE 9 13 5 7 1012.6 1012.6 -
25/02:30pm - - - - - SE 4 9 2 5 1013.0 1013.0 -
25/02:00pm - - - - - SE 4 7 2 4 1013.1 1013.1 -
25/01:30pm - - - - - SSE 4 7 2 4 1013.5 1013.5 -
25/01:00pm - - - - - S 4 7 2 4 1013.9 1013.9 -
25/12:30pm - - - - - SW 2 6 1 3 1014.3 1014.3 -
25/12:00pm - - - - - S 6 7 3 4 1014.8 1014.8 -
25/11:30am - - - - - CALM 0 0 0 0 1015.2 1015.2 -
25/11:00am - - - - - CALM 0 0 0 0 1015.6 1015.6 -
25/10:30am - - - - - CALM 0 0 0 0 1015.9 1015.9 -
25/10:00am - - - - - CALM 0 2 0 1 1016.0 1016.0 -
25/09:30am - - - - - ESE 4 6 2 3 1016.0 1016.0 -
25/09:00am - - - - - ESE 6 7 3 4 1015.9 1015.9 -
25/08:30am - - - - - SE 6 7 3 4 1015.7 1015.7 -
25/08:00am - - - - - ESE 4 6 2 3 1015.4 1015.4 -
25/07:30am - - - - - CALM 0 2 0 1 1015.1 1015.1 -
25/07:00am - - - - - ESE 4 6 2 3 1014.8 1014.8 -
25/06:30am - - - - - E 4 7 2 4 1014.7 1014.7 -
25/06:00am - - - - - ESE 6 7 3 4 1014.4 1014.4 -
25/05:30am - - - - - ESE 7 9 4 5 1014.0 1014.0 -
25/05:00am - - - - - SE 9 11 5 6 1013.8 1013.8 -
25/04:30am - - - - - ESE 9 11 5 6 1013.6 1013.6 -
25/04:00am - - - - - ESE 6 9 3 5 1013.5 1013.5 -
25/03:30am - - - - - ESE 7 9 4 5 1013.4 1013.4 -
25/03:00am - - - - - ESE 6 9 3 5 1013.3 1013.3 -
25/02:30am - - - - - E 7 9 4 5 1013.4 1013.4 -
25/02:00am - - - - - ESE 7 11 4 6 1013.8 1013.8 -
25/01:30am - - - - - ENE 9 11 5 6 1013.9 1013.9 -
25/01:00am - - - - - E 9 13 5 7 1014.1 1014.1 -
25/12:30am - - - - - E 7 11 4 6 1014.4 1014.4 -
25/12:00am - - - - - ESE 7 9 4 5 1014.7 1014.7 -
 
Date/Time
EST
Temp
°C
App
Temp
°C
Dew
Point
Rel
Hum
%
Delta-T
°C
Wind Press
QNH
hPa
Press
MSL
hPa
Rain
since 9 am
mm
Dir
 
Spd
km/h
Gust
km/h
Spd
kts
Gust
kts
24/11:30pm - - - - - E 9 11 5 6 1014.8 1014.8 -
24/11:00pm - - - - - ESE 9 11 5 6 1015.0 1015.0 -
24/10:30pm - - - - - ESE 9 13 5 7 1015.0 1015.0 -
24/10:00pm - - - - - ESE 11 15 6 8 1014.8 1014.8 -
24/09:30pm - - - - - ESE 11 15 6 8 1014.9 1014.9 -
24/09:00pm - - - - - ESE 13 15 7 8 1014.7 1014.7 -
24/08:30pm - - - - - ESE 13 17 7 9 1014.3 1014.3 -
24/08:00pm - - - - - ESE 15 19 8 10 1013.8 1013.8 -
24/07:30pm - - - - - ESE 13 17 7 9 1013.6 1013.6 -
24/07:00pm - - - - - SE 13 17 7 9 1013.3 1013.3 -
24/06:30pm - - - - - SE 11 15 6 8 1013.1 1013.1 -
24/06:00pm - - - - - SE 11 13 6 7 1012.9 1012.9 -
24/05:30pm - - - - - ESE 13 15 7 8 1012.7 1012.7 -
24/05:00pm - - - - - ESE 13 17 7 9 1012.5 1012.5 -
24/04:30pm - - - - - ESE 11 15 6 8 1012.5 1012.5 -
24/04:00pm - - - - - ESE 11 13 6 7 1012.3 1012.3 -
24/03:30pm - - - - - ESE 9 13 5 7 1012.4 1012.4 -
24/03:00pm - - - - - ESE 9 13 5 7 1012.5 1012.5 -
24/02:30pm - - - - - ESE 7 11 4 6 1012.7 1012.7 -
24/02:00pm - - - - - ESE 9 11 5 6 1013.1 1013.1 -

Other Formats:

Comma delimited format used in spreadsheet applications
http://www.bom.gov.au/fwo/IDQ60801/IDQ60801.94284.axf

JavaScript Object Notation format (JSON) in row-major order
http://www.bom.gov.au/fwo/IDQ60801/IDQ60801.94284.json